createdAt,value
2017-07-18T08:06:49.825Z,26.0
2017-07-18T08:07:51.505Z,26.0
2017-07-18T08:08:53.196Z,25.8
2017-07-18T08:09:54.878Z,25.7
2017-07-18T08:10:56.568Z,25.5
2017-07-18T08:11:58.255Z,26.1
2017-07-18T08:12:59.938Z,26.4
2017-07-18T08:14:01.695Z,26.4
2017-07-18T08:15:03.398Z,26.4
2017-07-18T08:16:05.083Z,26.7
2017-07-18T08:17:06.756Z,27.0
2017-07-18T08:18:08.442Z,27.5
2017-07-18T08:19:10.116Z,27.7
2017-07-18T08:20:11.805Z,27.3
2017-07-18T08:21:13.494Z,26.4
2017-07-18T08:22:15.201Z,25.5
2017-07-18T08:23:16.888Z,25.2
2017-07-18T08:24:18.571Z,25.2
2017-07-18T08:25:20.254Z,25.0
2017-07-18T08:26:21.943Z,24.9
2017-07-18T08:27:23.627Z,24.7
2017-07-18T08:28:25.321Z,24.7
2017-07-18T08:29:27.009Z,24.6
2017-07-18T08:30:28.708Z,25.0
2017-07-18T08:31:30.399Z,25.3
2017-07-18T08:32:32.096Z,26.2
2017-07-18T08:33:33.781Z,27.0
2017-07-18T08:34:35.536Z,27.7
2017-07-18T08:35:37.210Z,27.5
2017-07-18T08:36:39.126Z,27.4
2017-07-18T08:37:40.830Z,26.7
2017-07-18T08:38:42.508Z,26.6
2017-07-18T08:39:44.192Z,26.6
2017-07-18T08:40:45.974Z,26.8
2017-07-18T08:41:47.649Z,26.6
2017-07-18T08:42:49.527Z,26.1
2017-07-18T08:43:51.218Z,25.7
2017-07-18T08:44:52.898Z,25.8
2017-07-18T08:45:54.584Z,25.5
2017-07-18T08:46:56.275Z,25.4
2017-07-18T08:47:57.996Z,25.6
2017-07-18T08:48:59.712Z,25.4
2017-07-18T08:50:01.499Z,25.2
2017-07-18T08:51:03.188Z,25.1
2017-07-18T08:52:04.873Z,24.9
2017-07-18T08:53:06.575Z,25.1
2017-07-18T08:54:08.256Z,25.3
2017-07-18T08:55:10.075Z,25.3
2017-07-18T08:56:11.791Z,25.5
2017-07-18T08:57:13.477Z,25.4
2017-07-18T08:58:15.173Z,25.5
2017-07-18T08:59:16.858Z,25.7
2017-07-18T09:00:18.543Z,25.5
2017-07-18T09:01:20.347Z,25.2
2017-07-18T09:02:22.034Z,25.2
2017-07-18T09:03:23.743Z,25.0
2017-07-18T09:04:25.426Z,25.2
2017-07-18T09:05:27.101Z,25.3
2017-07-18T09:06:28.797Z,25.5
2017-07-18T09:07:30.608Z,25.6
2017-07-18T09:08:32.307Z,25.7
2017-07-18T09:09:34.004Z,25.6
2017-07-18T09:10:35.734Z,25.6
2017-07-18T09:11:37.434Z,25.6
2017-07-18T09:12:39.124Z,25.4
2017-07-18T09:13:40.806Z,25.4
2017-07-18T09:14:42.493Z,25.4
2017-07-18T09:15:44.202Z,26.2
2017-07-18T09:16:45.897Z,26.8
2017-07-18T09:17:47.581Z,27.4
2017-07-18T09:18:49.303Z,27.8
2017-07-18T09:19:50.990Z,27.5
2017-07-18T09:20:52.664Z,26.9
2017-07-18T09:21:54.412Z,26.1
2017-07-18T09:22:56.126Z,26.0
2017-07-18T09:23:57.815Z,25.8
2017-07-18T09:24:59.507Z,25.6
2017-07-18T09:26:01.233Z,25.7
2017-07-18T09:27:02.909Z,26.2
2017-07-18T09:28:04.603Z,26.8
2017-07-18T09:29:06.290Z,27.0
2017-07-18T09:30:07.993Z,27.3
2017-07-18T09:31:09.677Z,27.6
2017-07-18T09:32:11.358Z,27.2
2017-07-18T09:33:13.049Z,27.0
2017-07-18T09:34:14.734Z,26.3
2017-07-18T09:35:16.418Z,26.0
2017-07-18T09:36:18.102Z,26.3
2017-07-18T09:37:19.791Z,26.1
2017-07-18T09:38:21.475Z,25.7
2017-07-18T09:39:23.176Z,25.7
2017-07-18T09:40:24.918Z,25.8
2017-07-18T09:41:26.604Z,25.5
2017-07-18T09:42:28.311Z,25.5
2017-07-18T09:43:30.013Z,25.3
2017-07-18T09:44:31.798Z,26.1
2017-07-18T09:45:33.482Z,26.2
2017-07-18T09:46:35.181Z,26.6
2017-07-18T09:47:36.931Z,27.2
2017-07-18T09:48:38.611Z,27.7
2017-07-18T09:49:40.288Z,27.7
2017-07-18T09:50:41.976Z,27.2
2017-07-18T09:51:43.658Z,26.6
2017-07-18T09:52:45.350Z,26.7
2017-07-18T09:53:47.030Z,26.7
2017-07-18T09:54:48.717Z,26.2
2017-07-18T09:55:50.402Z,26.1
2017-07-18T09:56:52.083Z,26.0
2017-07-18T09:57:53.770Z,26.5
2017-07-18T09:58:55.464Z,27.0
2017-07-18T09:59:57.169Z,27.2
2017-07-18T10:00:58.864Z,27.6
2017-07-18T10:02:00.591Z,27.9
2017-07-18T10:03:02.291Z,27.7
2017-07-18T10:04:03.981Z,27.4
2017-07-18T10:05:05.660Z,27.2
2017-07-18T10:06:07.345Z,27.0
2017-07-18T10:07:09.034Z,26.9
2017-07-18T10:08:10.721Z,27.4
2017-07-18T10:09:12.405Z,26.6
2017-07-18T10:10:14.162Z,26.2
2017-07-18T10:11:15.852Z,25.9
2017-07-18T10:12:17.613Z,26.1
2017-07-18T10:13:19.316Z,26.6
2017-07-18T10:14:21.003Z,26.5
2017-07-18T10:15:22.695Z,26.4
2017-07-18T10:16:24.405Z,26.9
2017-07-18T10:17:26.111Z,27.0
2017-07-18T10:18:27.806Z,27.1
2017-07-18T10:19:29.543Z,27.4
2017-07-18T10:20:38.075Z,27.9
2017-07-18T15:38:20.134Z,27.8
2017-07-18T15:39:21.912Z,28.2
2017-07-18T15:40:23.594Z,27.6
2017-07-18T15:41:25.285Z,27.6
2017-07-18T15:42:26.968Z,27.4
2017-07-18T15:43:28.851Z,27.5
2017-07-18T15:44:30.547Z,27.6
2017-07-18T15:45:32.287Z,27.8
2017-07-18T15:46:34.345Z,27.6
2017-07-18T15:47:36.050Z,27.2
2017-07-18T15:48:37.785Z,27.1
2017-07-18T15:49:39.451Z,26.8
2017-07-18T15:50:41.130Z,26.7
2017-07-18T15:51:42.813Z,26.6
2017-07-18T15:52:44.486Z,26.7
2017-07-18T15:55:00.731Z,26.6
2017-07-18T15:56:02.407Z,26.6
2017-07-18T15:57:04.137Z,26.4
2017-07-18T15:58:05.867Z,26.5
2017-07-18T15:59:07.536Z,26.7
2017-07-18T16:00:09.225Z,26.8
2017-07-18T16:01:10.908Z,27.0
2017-07-18T16:02:12.588Z,27.1
2017-07-18T16:03:14.267Z,27.1
2017-07-18T16:04:15.937Z,27.1
2017-07-18T16:05:17.623Z,27.0
2017-07-18T16:06:19.329Z,27.1
2017-07-18T16:07:21.019Z,27.2
2017-07-18T16:08:22.704Z,27.2
2017-07-18T16:09:24.386Z,27.4
2017-07-18T16:10:26.067Z,27.6
2017-07-18T16:11:27.754Z,27.7
2017-07-18T16:12:29.603Z,27.5
2017-07-18T16:13:31.280Z,27.3
2017-07-18T16:14:32.958Z,27.1
2017-07-18T16:15:34.643Z,27.1
2017-07-18T16:16:36.325Z,27.2
2017-07-18T16:17:38.003Z,27.3
2017-07-18T16:18:39.681Z,27.3
2017-07-18T16:19:41.356Z,27.3
2017-07-18T16:20:43.038Z,27.2
2017-07-18T16:21:44.715Z,27.3
2017-07-18T16:22:46.398Z,27.3
2017-07-18T16:23:48.073Z,27.2
2017-07-18T16:24:49.758Z,27.1
2017-07-18T16:25:51.450Z,27.3
2017-07-18T16:26:53.139Z,27.4
2017-07-18T16:27:54.926Z,27.4
2017-07-18T16:28:56.658Z,27.3
2017-07-18T16:29:58.319Z,27.4
2017-07-18T16:31:00.001Z,27.4
2017-07-18T16:32:01.728Z,27.3
2017-07-18T16:33:03.472Z,27.3
2017-07-18T16:34:05.180Z,27.4
2017-07-18T16:35:06.882Z,27.2
2017-07-18T16:36:08.635Z,27.5
2017-07-18T16:37:10.354Z,27.7
2017-07-18T16:38:12.558Z,27.6
2017-07-18T16:39:14.256Z,27.7
2017-07-18T16:40:15.945Z,27.7
2017-07-18T16:41:17.746Z,27.6
2017-07-18T16:42:19.448Z,27.5
2017-07-18T16:43:21.190Z,27.4
2017-07-18T16:44:25.927Z,27.2
2017-07-18T16:45:27.609Z,27.2
2017-07-18T16:46:29.279Z,27.1
2017-07-18T16:47:30.952Z,27.2
2017-07-18T16:48:32.636Z,27.2
2017-07-18T16:49:34.506Z,27.1
2017-07-18T16:50:37.869Z,27.1
2017-07-18T16:51:39.743Z,27.1
2017-07-18T16:52:41.382Z,26.8
2017-07-18T16:53:43.048Z,27.1
2017-07-18T16:54:46.871Z,27.3
2017-07-18T16:55:48.486Z,27.1
2017-07-18T16:56:50.509Z,27.3
2017-07-18T16:57:52.177Z,27.4
2017-07-18T16:58:55.054Z,27.2
2017-07-18T16:59:56.733Z,27.1
2017-07-18T17:00:59.618Z,27.1
2017-07-18T17:02:01.448Z,27.0
2017-07-18T17:03:04.871Z,27.0
2017-07-18T17:04:06.548Z,27.2
2017-07-18T17:05:08.225Z,27.3
2017-07-18T17:06:09.954Z,27.3
2017-07-18T17:07:11.912Z,27.4
2017-07-18T17:08:13.646Z,27.4
2017-07-18T17:09:15.713Z,27.4
2017-07-18T17:10:17.403Z,27.4
2017-07-18T17:11:19.339Z,27.5
2017-07-18T17:12:21.002Z,27.4
2017-07-18T17:13:22.678Z,27.3
2017-07-18T17:14:24.357Z,27.2
2017-07-18T17:15:26.030Z,27.1
2017-07-18T17:16:27.706Z,27.0
2017-07-18T17:17:29.379Z,27.2
2017-07-18T17:18:31.133Z,27.1
2017-07-18T17:19:32.830Z,27.2
2017-07-18T17:20:34.509Z,27.2
2017-07-18T17:21:36.227Z,27.2
2017-07-18T17:22:37.896Z,27.3
2017-07-18T17:23:39.820Z,27.1
2017-07-18T17:24:41.517Z,27.3
2017-07-18T17:25:43.172Z,27.3
2017-07-18T17:26:44.863Z,27.3
2017-07-18T17:27:46.538Z,27.2
2017-07-18T17:28:48.212Z,26.9
2017-07-18T17:29:49.900Z,26.9
2017-07-18T17:30:51.570Z,26.9
2017-07-18T17:31:53.254Z,26.6
2017-07-18T17:32:55.684Z,26.7
2017-07-18T17:33:57.369Z,26.7
2017-07-18T17:34:59.050Z,26.7
2017-07-18T17:36:00.735Z,26.5
2017-07-18T17:37:02.413Z,26.5
2017-07-18T17:38:04.158Z,26.4
2017-07-18T17:39:05.839Z,26.4
2017-07-18T17:40:07.549Z,26.3
2017-07-18T17:41:09.237Z,26.4
2017-07-18T17:42:10.925Z,26.2
2017-07-18T17:43:12.600Z,26.1
2017-07-18T17:44:14.277Z,26.1
2017-07-18T17:45:15.941Z,26.2
2017-07-18T17:46:17.625Z,26.1
2017-07-18T17:47:19.452Z,26.0
2017-07-18T17:48:21.166Z,26.0
2017-07-18T17:49:22.833Z,26.1
2017-07-18T17:50:24.509Z,25.9
2017-07-18T17:51:26.201Z,25.9
2017-07-18T17:52:27.883Z,25.8
2017-07-18T17:53:29.594Z,25.8
2017-07-18T17:54:31.375Z,25.8
2017-07-18T17:55:33.002Z,25.7
2017-07-18T17:56:34.685Z,25.7
2017-07-18T17:57:36.376Z,25.7
2017-07-18T17:58:38.054Z,25.7
2017-07-18T17:59:39.729Z,25.7
2017-07-18T18:00:41.416Z,25.6
2017-07-18T18:01:43.089Z,25.5
2017-07-18T18:02:44.774Z,25.5
2017-07-18T18:03:46.445Z,25.5
2017-07-18T18:04:48.120Z,25.5
2017-07-18T18:05:49.791Z,25.5
2017-07-18T18:06:51.469Z,25.5
2017-07-18T18:07:53.171Z,25.5
2017-07-18T18:08:54.863Z,25.5
2017-07-18T18:09:56.546Z,25.4
2017-07-18T18:10:58.260Z,25.4
2017-07-18T18:11:59.942Z,25.4
2017-07-18T18:13:01.589Z,25.3
2017-07-18T18:14:03.278Z,25.3
2017-07-18T18:15:04.945Z,25.3
2017-07-18T18:16:06.655Z,25.3
2017-07-18T18:17:08.351Z,25.3
2017-07-18T18:18:10.019Z,25.2
2017-07-18T18:19:11.705Z,25.3
2017-07-18T18:20:13.450Z,25.2
2017-07-18T18:21:15.117Z,25.2
2017-07-18T18:22:16.825Z,25.2
2017-07-18T18:23:18.566Z,25.2
2017-07-18T18:24:20.551Z,25.2
2017-07-18T18:25:22.617Z,25.2
2017-07-18T18:26:27.290Z,25.3
2017-07-18T18:27:29.541Z,25.2
2017-07-18T19:40:24.218Z,21.5
2017-07-18T19:41:25.905Z,21.4
2017-07-18T19:42:27.616Z,21.4
2017-07-18T19:43:29.279Z,21.3
2017-07-18T19:44:30.945Z,21.3
2017-07-18T19:45:32.610Z,21.2
2017-07-18T19:46:34.282Z,21.1
2017-07-18T19:47:35.953Z,21.0
2017-07-18T19:48:37.632Z,21.0
2017-07-18T19:49:39.300Z,21.0
2017-07-18T19:50:40.960Z,20.8
2017-07-18T19:51:42.620Z,20.8
2017-07-18T19:52:44.281Z,20.8
2017-07-18T19:53:45.948Z,20.7
2017-07-18T19:54:47.623Z,20.7
2017-07-18T19:55:49.278Z,20.7
2017-07-18T19:56:50.949Z,20.6
2017-07-18T19:57:52.644Z,20.6
2017-07-18T19:58:54.389Z,20.6
2017-07-18T19:59:56.076Z,20.6
2017-07-18T20:00:57.741Z,20.5
2017-07-18T20:01:59.438Z,20.4
2017-07-18T20:03:01.128Z,20.3
2017-07-18T20:04:02.782Z,20.3
2017-07-18T20:05:04.541Z,20.2
2017-07-18T20:06:06.226Z,20.2
2017-07-18T20:07:07.889Z,20.3
2017-07-18T20:08:09.560Z,20.2
2017-07-18T20:09:11.236Z,20.1
2017-07-18T20:10:12.901Z,20.1
2017-07-18T20:11:14.557Z,20.1
2017-07-18T20:12:16.218Z,20.0
2017-07-18T20:13:17.877Z,20.0
2017-07-18T20:14:19.542Z,20.0
2017-07-18T20:15:21.228Z,19.9
2017-07-18T20:16:22.916Z,19.9
2017-07-18T20:17:24.580Z,19.9
2017-07-18T20:18:26.238Z,19.9
2017-07-18T20:19:27.904Z,19.9
2017-07-18T20:20:29.605Z,19.8
2017-07-18T20:21:31.271Z,19.9
2017-07-18T20:22:32.929Z,19.8
2017-07-18T20:23:34.596Z,19.8
2017-07-18T20:24:36.259Z,19.8
2017-07-18T20:25:37.917Z,19.7
2017-07-18T20:26:39.664Z,19.7
2017-07-18T20:27:41.291Z,19.6
2017-07-18T20:28:42.959Z,19.6
2017-07-18T20:29:44.628Z,19.5
2017-07-18T20:30:46.310Z,19.4
2017-07-18T20:31:48.038Z,19.5
2017-07-18T20:32:49.706Z,19.4
2017-07-18T20:33:51.368Z,19.4
2017-07-18T20:34:56.252Z,19.4
2017-07-18T20:35:57.567Z,19.2
2017-07-18T20:36:59.270Z,19.3
2017-07-18T20:38:00.963Z,19.3
2017-07-18T20:39:02.662Z,19.1
2017-07-18T20:40:04.318Z,19.2
2017-07-18T20:41:05.985Z,19.1
2017-07-18T20:42:07.656Z,19.1
2017-07-18T20:43:09.317Z,19.1
2017-07-18T20:44:11.733Z,19.0
2017-07-18T20:45:13.408Z,19.1
2017-07-18T20:46:15.062Z,19.1
2017-07-18T20:47:16.730Z,19.1
2017-07-18T20:48:18.395Z,19.0
2017-07-18T20:49:20.070Z,18.9
2017-07-18T20:50:21.743Z,19.0
2017-07-18T20:51:23.413Z,18.9
2017-07-18T20:52:25.070Z,18.9
2017-07-18T20:53:26.722Z,18.9
2017-07-18T20:54:28.570Z,19.0
2017-07-18T20:55:32.281Z,18.9
2017-07-18T20:56:33.937Z,18.9
2017-07-18T20:57:35.625Z,18.9
2017-07-18T20:58:37.281Z,18.8
2017-07-18T20:59:38.975Z,18.9
2017-07-18T21:00:40.635Z,18.7
2017-07-18T21:01:42.295Z,18.8
2017-07-18T21:02:43.972Z,18.7
2017-07-18T21:03:45.629Z,18.7
2017-07-18T21:04:47.301Z,18.5
2017-07-18T21:05:48.979Z,18.6
2017-07-18T21:06:50.644Z,18.6
2017-07-18T21:07:52.306Z,18.6
2017-07-18T21:08:54.042Z,18.4
2017-07-18T21:09:56.122Z,18.5
2017-07-18T21:10:57.786Z,18.4
2017-07-18T21:11:59.464Z,18.4
2017-07-18T21:13:01.133Z,18.4
2017-07-18T21:14:03.697Z,18.4
2017-07-18T21:15:05.340Z,18.4
2017-07-18T21:16:07.010Z,18.3
2017-07-18T21:17:08.681Z,18.3
2017-07-18T21:18:10.371Z,18.3
2017-07-18T21:19:14.545Z,18.4
2017-07-18T21:20:15.968Z,18.3
2017-07-18T21:21:17.628Z,18.2
2017-07-18T21:22:19.286Z,18.2
2017-07-18T21:23:21.207Z,18.2
2017-07-18T21:24:22.914Z,18.2
2017-07-18T21:25:24.565Z,18.2
2017-07-18T21:26:26.230Z,18.1
2017-07-18T21:27:30.198Z,18.0
2017-07-18T21:28:34.033Z,18.0
2017-07-18T21:29:35.663Z,18.0
2017-07-18T21:30:37.337Z,18.1
2017-07-18T21:31:39.012Z,18.0
2017-07-18T21:32:40.674Z,18.0
2017-07-18T21:33:42.549Z,18.0
2017-07-18T21:34:44.256Z,17.9
2017-07-18T21:35:46.481Z,18.0
2017-07-18T21:36:48.147Z,17.9
2017-07-18T21:37:49.798Z,17.8
2017-07-18T21:38:51.453Z,17.9
2017-07-18T21:39:53.131Z,17.9
2017-07-18T21:40:54.814Z,17.9
2017-07-18T21:41:56.475Z,17.9
2017-07-18T21:42:59.542Z,17.8
2017-07-18T21:44:01.199Z,17.7
2017-07-18T21:45:02.859Z,17.8
2017-07-18T21:46:04.518Z,17.7
2017-07-18T21:47:06.192Z,17.8
2017-07-18T21:48:07.850Z,17.8
2017-07-18T21:49:09.568Z,17.8
2017-07-18T21:50:11.248Z,17.7
2017-07-18T21:51:12.908Z,17.7
2017-07-18T21:52:14.575Z,17.7
2017-07-18T21:53:16.238Z,17.7
2017-07-18T21:54:17.905Z,17.7
2017-07-18T21:55:19.578Z,17.7
2017-07-18T21:56:21.241Z,17.6
2017-07-18T21:57:22.900Z,17.7
2017-07-18T21:58:24.554Z,17.6
2017-07-18T21:59:26.225Z,17.6
2017-07-18T22:00:27.883Z,17.6
2017-07-18T22:01:29.581Z,17.6
2017-07-18T22:02:31.244Z,17.5
2017-07-18T22:03:32.905Z,17.6
2017-07-18T22:04:34.569Z,17.5
2017-07-18T22:05:36.235Z,17.5
2017-07-18T22:06:37.900Z,17.5
2017-07-18T22:07:39.569Z,17.4
2017-07-18T22:08:41.235Z,17.4
2017-07-18T22:09:42.901Z,17.5
2017-07-18T22:10:44.570Z,17.5
2017-07-18T22:11:46.230Z,17.5
2017-07-18T22:12:47.885Z,17.5
2017-07-18T22:13:49.559Z,17.4
2017-07-18T22:14:51.223Z,17.4
2017-07-18T22:15:52.898Z,17.5
2017-07-18T22:16:54.554Z,17.4
2017-07-18T22:17:56.221Z,17.4
2017-07-18T22:18:57.886Z,17.5
2017-07-18T22:19:59.539Z,17.3
2017-07-18T22:21:01.197Z,17.3
2017-07-18T22:22:02.873Z,17.4
2017-07-18T22:23:04.532Z,17.4
2017-07-18T22:24:06.195Z,17.3
2017-07-18T22:25:07.861Z,17.3
2017-07-18T22:26:09.531Z,17.4
2017-07-18T22:27:11.190Z,17.4
2017-07-18T22:28:12.861Z,17.3
2017-07-18T22:29:14.532Z,17.3
2017-07-18T22:30:16.187Z,17.2
2017-07-18T22:31:17.853Z,17.2
2017-07-18T22:32:19.523Z,17.2
2017-07-18T22:33:21.184Z,17.2
2017-07-18T22:34:22.851Z,17.1
2017-07-18T22:35:24.524Z,17.1
2017-07-18T22:36:26.200Z,17.1
2017-07-18T22:37:27.869Z,17.2
2017-07-18T22:38:29.559Z,17.1
2017-07-18T22:39:31.228Z,17.1
2017-07-18T22:40:32.891Z,17.1
2017-07-18T22:41:34.551Z,17.1
2017-07-18T22:42:36.210Z,17.1
2017-07-18T22:43:37.865Z,17.1
2017-07-18T22:44:39.537Z,17.1
2017-07-18T22:45:41.196Z,17.1
2017-07-18T22:46:42.863Z,17.1
2017-07-18T22:47:44.518Z,17.1
2017-07-18T22:48:46.175Z,17.1
2017-07-18T22:49:47.844Z,17.1
2017-07-18T22:50:49.503Z,17.1
2017-07-18T22:51:51.168Z,17.1
2017-07-18T22:52:52.841Z,17.1
2017-07-18T22:53:54.503Z,17.0
2017-07-18T22:54:56.167Z,17.0
2017-07-18T22:55:57.831Z,17.0
2017-07-18T22:56:59.498Z,17.0
2017-07-18T22:58:01.160Z,16.9
2017-07-18T22:59:02.825Z,16.9
2017-07-18T23:00:04.481Z,16.9
2017-07-18T23:01:06.146Z,16.9
2017-07-18T23:02:07.839Z,16.9
2017-07-18T23:03:09.503Z,16.9
2017-07-18T23:04:11.173Z,16.8
2017-07-18T23:05:12.836Z,16.9
2017-07-18T23:06:14.498Z,16.9
2017-07-18T23:07:16.163Z,16.8
2017-07-18T23:08:17.852Z,16.8
2017-07-18T23:09:19.492Z,16.8
2017-07-18T23:10:21.165Z,16.8
2017-07-18T23:11:22.883Z,16.8
2017-07-18T23:12:24.550Z,16.8
2017-07-18T23:13:26.205Z,16.7
2017-07-18T23:14:27.866Z,16.8
2017-07-18T23:15:29.568Z,16.7
2017-07-18T23:16:31.241Z,16.8
2017-07-18T23:17:32.906Z,16.7
2017-07-18T23:18:34.568Z,16.7
2017-07-18T23:19:36.232Z,16.7
2017-07-18T23:20:37.896Z,16.6
2017-07-18T23:21:39.552Z,16.6
2017-07-18T23:22:41.213Z,16.5
2017-07-18T23:23:42.882Z,16.6
2017-07-18T23:24:44.554Z,16.6
2017-07-18T23:25:46.234Z,16.6
2017-07-18T23:26:47.898Z,16.7
2017-07-18T23:27:49.564Z,16.6
2017-07-18T23:28:51.226Z,16.7
2017-07-18T23:29:52.891Z,16.6
2017-07-18T23:30:54.553Z,16.7
2017-07-18T23:31:56.218Z,16.7
2017-07-18T23:32:57.887Z,16.6
2017-07-18T23:33:59.545Z,16.5
2017-07-18T23:35:01.228Z,16.5
2017-07-18T23:36:02.889Z,16.6
2017-07-18T23:37:04.554Z,16.5
2017-07-18T23:38:06.228Z,16.5
2017-07-18T23:39:07.886Z,16.5
2017-07-18T23:40:09.555Z,16.5
2017-07-18T23:41:11.219Z,16.5
2017-07-18T23:42:12.893Z,16.5
2017-07-18T23:43:14.555Z,16.5
2017-07-18T23:44:16.216Z,16.5
2017-07-18T23:45:17.884Z,16.4
2017-07-18T23:46:19.546Z,16.4
2017-07-18T23:47:21.205Z,16.3
2017-07-18T23:48:22.868Z,16.4
2017-07-18T23:49:24.534Z,16.4
2017-07-18T23:50:26.202Z,16.4
2017-07-18T23:51:27.871Z,16.4
2017-07-18T23:52:29.557Z,16.3
2017-07-18T23:53:31.226Z,16.3
2017-07-18T23:54:32.914Z,16.4
2017-07-18T23:55:34.592Z,16.5
2017-07-18T23:56:36.255Z,16.3
2017-07-18T23:57:37.923Z,16.4
2017-07-18T23:58:39.621Z,16.4
2017-07-18T23:59:41.281Z,16.3
